Last 24 Hours

Pinyon

10 Minute Data | America/Los_Angeles
as of 9/5/26 5:19 AM PDT
Date & Time Temp (°F) Dew Pt (°F) RH (%) Wind Spd (mph) Wind Dir (°) Wind Gust (mph) Wind Gst Dir (°) Daily Max Temp (°F) Daily Min Temp (°F)
9/5/26 - 0510 63.9 24.0 22 11.7 NNE | 12 16.8 N | 6 66.4 63.5
9/5/26 - 0500 63.8 25.0 23 11.8 NNE | 15 16.7 N | 6 66.4 63.5
9/5/26 - 0450 63.9 25.0 23 11.1 NNE | 14 15.8 NNE | 18 66.4 63.8
9/5/26 - 0440 64.2 24.4 22 10.8 N | 9 17.2 NNE | 13 66.4 64.0
9/5/26 - 0430 64.3 25.2 22 10.9 N | 9 16.1 N | 3 66.4 64.0
9/5/26 - 0420 64.2 26.4 24 10.8 N | 5 16.7 N | 353 66.4 64.0
9/5/26 - 0410 64.5 27.2 24 11.1 N | 2 17.0 N | 6 66.4 64.4
9/5/26 - 0400 64.7 28.0 25 11.7 N | 1 18.0 N | 3 66.4 64.5
9/5/26 - 0350 64.8 28.8 26 11.7 N | 4 17.8 N | 0 66.4 64.5
9/5/26 - 0340 64.9 28.8 26 12.5 N | 359 17.7 NNE | 12 66.4 64.5
9/5/26 - 0330 64.8 28.9 26 13.1 N | 0 19.3 N | 10 66.4 64.5
9/5/26 - 0320 64.7 29.1 26 14.0 N | 359 18.6 N | 349 66.4 64.5
9/5/26 - 0310 64.6 29.6 27 11.5 N | 358 17.0 N | 4 66.4 64.5
9/5/26 - 0300 65.2 29.4 26 10.8 N | 356 16.7 N | 354 66.4 64.7
9/5/26 - 0250 65.4 29.6 26 11.6 N | 356 18.0 N | 352 66.4 65.1
9/5/26 - 0240 65.4 29.5 26 11.4 N | 351 17.4 N | 0 66.4 65.1
9/5/26 - 0230 65.2 29.2 26 9.5 NNW | 344 16.5 NNW | 347 66.4 65.1
9/5/26 - 0220 65.3 29.6 26 10.2 N | 355 15.7 N | 0 66.4 65.1
9/5/26 - 0210 65.5 29.7 26 11.9 N | 352 18.2 N | 2 66.4 65.3
9/5/26 - 0200 65.7 29.3 25 13.6 N | 351 23.4 N | 6 66.4 65.3
9/5/26 - 0150 66.2 28.2 24 16.5 N | 0 22.9 N | 9 66.4 65.3
9/5/26 - 0140 65.9 28.5 24 15.0 N | 356 21.5 N | 352 66.1 65.3
9/5/26 - 0130 65.6 29.9 26 15.8 N | 356 20.7 NNW | 343 65.8 65.3
9/5/26 - 0120 65.4 30.8 27 17.0 N | 360 22.4 N | 4 65.6 65.3
9/5/26 - 0110 65.6 31.1 27 16.9 N | 3 23.6 N | 3 65.6 65.5
9/5/26 - 0100 65.5 32.0 29 16.9 N | 3 24.6 NNE | 20 82.9 62.2
9/5/26 - 0050 65.9 32.4 29 15.9 N | 2 22.7 N | 0 82.9 62.2
9/5/26 - 0040 66.3 33.6 30 13.3 N | 356 19.5 N | 352 82.9 62.2
9/5/26 - 0030 67.0 34.0 29 12.2 N | 0 17.8 NNE | 12 82.9 62.2
9/5/26 - 0020 66.8 34.0 30 12.5 N | 3 19.9 N | 0 82.9 62.2
9/5/26 - 0010 66.3 35.8 32 13.2 N | 5 20.5 NNE | 16 82.9 62.2
9/5/26 - 0000 66.3 36.3 33 14.6 N | 2 23.4 N | 4 82.9 62.2
9/4/26 - 2350 66.5 35.7 32 14.6 N | 6 23.4 N | 11 82.9 62.2
9/4/26 - 2340 66.0 36.0 33 15.0 N | 9 20.4 NNE | 14 82.9 62.2
9/4/26 - 2330 66.2 35.8 32 15.9 N | 4 23.6 N | 5 82.9 62.2
9/4/26 - 2320 65.8 36.4 34 15.7 N | 1 21.8 N | 354 82.9 62.2
9/4/26 - 2310 66.1 36.0 33 13.9 N | 356 21.0 N | 0 82.9 62.2
9/4/26 - 2300 66.6 34.9 31 14.0 N | 355 19.4 N | 3 82.9 62.2
9/4/26 - 2250 66.3 36.0 32 14.6 N | 357 21.1 N | 9 82.9 62.2
9/4/26 - 2240 66.5 36.4 33 14.4 N | 1 23.2 N | 10 82.9 62.2
9/4/26 - 2230 66.3 36.9 34 14.5 N | 3 20.7 N | 5 82.9 62.2
9/4/26 - 2220 66.4 37.4 34 14.1 N | 5 21.1 N | 8 82.9 62.2
9/4/26 - 2210 67.0 37.1 33 14.2 N | 6 20.5 N | 0 82.9 62.2
9/4/26 - 2200 66.6 37.8 35 13.7 N | 6 20.2 N | 11 82.9 62.2
9/4/26 - 2150 66.4 38.3 35 12.8 N | 8 18.6 NNE | 18 82.9 62.2
9/4/26 - 2140 66.6 38.4 35 12.3 N | 9 18.7 NNE | 16 82.9 62.2
9/4/26 - 2130 67.4 38.3 34 10.9 N | 7 20.0 N | 6 82.9 62.2
9/4/26 - 2120 67.7 38.4 34 12.2 N | 351 18.0 NNW | 347 82.9 62.2
9/4/26 - 2110 68.0 39.0 35 12.8 N | 349 17.5 NNW | 347 82.9 62.2
9/4/26 - 2100 68.2 39.7 35 14.8 N | 357 20.2 N | 0 82.9 62.2
9/4/26 - 2050 67.9 40.0 36 13.1 N | 1 17.8 N | 0 82.9 62.2
9/4/26 - 2040 68.0 40.3 36 12.8 N | 358 19.0 NNW | 348 82.9 62.2
9/4/26 - 2030 68.2 40.6 37 13.0 N | 5 19.4 N | 0 82.9 62.2
9/4/26 - 2020 68.8 41.1 36 14.5 N | 2 21.1 N | 6 82.9 62.2
9/4/26 - 2010 69.1 41.2 36 15.7 N | 354 21.0 NNW | 338 82.9 62.2
9/4/26 - 2000 69.2 41.4 36 15.2 N | 353 23.4 N | 352 82.9 62.2
9/4/26 - 1950 69.4 41.6 36 14.3 NNW | 344 20.0 NNW | 329 82.9 62.2
9/4/26 - 1940 69.7 41.5 36 15.3 NNW | 340 25.3 NNW | 335 82.9 62.2
9/4/26 - 1930 70.1 41.6 36 15.4 NNW | 338 25.1 N | 349 82.9 62.2
9/4/26 - 1920 70.6 42.4 36 13.7 NNW | 331 22.7 NW | 326 82.9 62.2
9/4/26 - 1910 71.1 43.2 36 14.8 NNW | 333 22.4 NNW | 340 82.9 62.2
9/4/26 - 1900 71.8 43.6 36 15.6 NNW | 337 24.4 N | 351 82.9 62.2
9/4/26 - 1850 73.0 44.0 35 17.6 NNW | 339 25.6 NNW | 338 82.9 62.2
9/4/26 - 1840 73.8 43.8 34 17.0 NNW | 340 23.5 NNW | 330 82.9 62.2
9/4/26 - 1830 74.7 43.9 33 16.0 NNW | 342 23.8 N | 350 82.9 62.2
9/4/26 - 1820 75.3 44.4 33 16.6 NNW | 347 24.5 NNW | 344 82.9 62.2
9/4/26 - 1810 76.0 44.1 32 17.1 N | 356 24.2 N | 5 82.9 62.2
9/4/26 - 1800 76.8 44.0 31 14.8 NNW | 346 21.6 NNW | 348 82.9 62.2
9/4/26 - 1750 77.6 43.2 29 13.9 NNW | 343 22.2 N | 0 82.9 62.2
9/4/26 - 1740 78.0 43.1 29 14.6 NNW | 340 22.8 N | 351 82.9 62.2
9/4/26 - 1730 78.0 42.9 29 13.6 NNW | 344 22.4 NNW | 331 82.9 62.2
9/4/26 - 1720 78.4 42.5 28 13.3 NNW | 342 20.5 NNW | 341 82.9 62.2
9/4/26 - 1710 78.5 41.8 27 13.8 N | 352 21.6 WSW | 239 82.9 62.2
9/4/26 - 1700 78.6 41.3 26 13.4 N | 354 21.2 NNW | 344 82.9 62.2
9/4/26 - 1650 79.0 41.0 26 13.8 N | 356 21.6 N | 1 82.9 62.2
9/4/26 - 1640 79.0 41.0 26 13.8 N | 358 23.5 NNW | 348 82.9 62.2
9/4/26 - 1630 79.3 40.7 25 15.3 N | 360 22.4 N | 0 82.9 62.2
9/4/26 - 1620 79.7 40.3 25 13.2 N | 355 20.8 NNW | 346 82.9 62.2
9/4/26 - 1610 80.0 40.0 24 13.4 NNW | 348 23.0 NNW | 333 82.9 62.2
9/4/26 - 1600 79.8 40.2 24 13.6 N | 360 22.2 N | 1 82.9 62.2
9/4/26 - 1550 80.3 39.8 24 13.2 NNW | 348 22.1 N | 3 82.9 62.2
9/4/26 - 1540 80.0 39.5 24 11.1 N | 3 21.6 NW | 324 82.9 62.2
9/4/26 - 1530 80.2 38.6 23 13.0 NNW | 345 24.8 NNW | 346 82.9 62.2
9/4/26 - 1520 81.0 38.1 22 12.6 NNW | 347 22.7 N | 351 82.9 62.2
9/4/26 - 1510 81.2 37.5 21 11.9 N | 350 22.4 N | 3 82.9 62.2
9/4/26 - 1500 81.1 36.2 20 9.8 NNW | 339 21.7 NNW | 336 82.9 62.2
9/4/26 - 1450 81.6 36.6 20 11.2 NNW | 336 19.4 N | 350 82.9 62.2
9/4/26 - 1440 81.8 33.6 18 10.2 NNW | 338 18.0 NW | 324 82.9 62.2
9/4/26 - 1430 81.7 32.0 16 11.1 NNW | 331 21.0 NW | 320 82.9 62.2
9/4/26 - 1420 81.0 33.5 18 11.5 NNW | 333 22.7 NNW | 336 82.9 62.2
9/4/26 - 1410 79.6 34.2 19 8.4 NNW | 348 15.4 E | 83 82.9 62.2
9/4/26 - 1400 76.2 37.7 25 3.7 SE | 141 9.3 ESE | 110 82.9 62.2
9/4/26 - 1350 79.0 36.9 22 4.9 SE | 128 10.5 SE | 136 82.9 62.2
9/4/26 - 1340 81.7 33.7 18 9.0 N | 352 17.3 NNE | 28 82.9 62.2
9/4/26 - 1330 80.5 34.1 19 10.4 N | 5 20.2 N | 3 80.9 62.2
9/4/26 - 1320 80.1 33.4 18 11.4 N | 354 20.1 NNW | 335 80.9 62.2
9/4/26 - 1310 80.2 32.4 18 14.2 N | 359 26.9 N | 7 80.9 62.2
9/4/26 - 1300 79.5 31.1 17 13.6 N | 351 20.4 NNW | 345 80.0 62.2
9/4/26 - 1250 79.1 29.9 17 14.0 N | 349 25.7 N | 353 79.7 62.2
9/4/26 - 1240 79.2 29.0 16 15.1 N | 357 23.6 N | 0 79.7 62.2
9/4/26 - 1230 78.6 28.2 16 14.5 N | 356 24.6 N | 0 79.4 62.2
9/4/26 - 1220 78.2 27.9 16 14.9 N | 350 28.1 N | 354 79.1 62.2
9/4/26 - 1210 78.2 27.5 15 13.6 NNW | 338 23.9 NNW | 334 79.1 62.2
9/4/26 - 1200 77.3 27.2 16 15.7 NNW | 346 22.6 NW | 321 78.2 62.2
9/4/26 - 1150 77.4 28.1 16 16.2 NNW | 333 24.4 NNW | 337 78.2 62.2
9/4/26 - 1140 77.6 26.9 15 14.6 NNW | 330 23.5 NNW | 346 78.2 62.2
9/4/26 - 1130 77.8 27.3 15 13.5 NNW | 328 22.3 NNW | 332 78.2 62.2
9/4/26 - 1120 77.7 26.6 15 13.2 NNW | 348 21.9 N | 349 78.2 62.2
9/4/26 - 1110 77.4 26.9 16 14.6 NNW | 338 21.0 NNW | 332 77.9 62.2
9/4/26 - 1100 76.7 27.7 16 14.0 NW | 325 21.6 NNW | 334 77.4 62.2
9/4/26 - 1050 76.5 27.2 16 14.4 NNW | 338 23.9 NNW | 340 77.4 62.2
9/4/26 - 1040 76.4 26.4 16 13.8 NNW | 333 21.5 NW | 311 77.4 62.2
9/4/26 - 1030 76.3 27.0 16 12.1 NNW | 336 17.8 NNW | 335 77.0 62.2
9/4/26 - 1020 75.6 27.2 17 12.5 NNW | 332 20.5 NNW | 337 76.3 62.2
9/4/26 - 1010 75.6 28.0 17 12.3 NNW | 331 22.7 NW | 317 76.3 62.2
9/4/26 - 1000 75.0 29.4 19 12.6 NNW | 343 19.6 NNW | 341 75.3 62.2
9/4/26 - 0950 74.7 31.2 20 14.1 NNW | 335 19.6 NNW | 346 75.2 62.2
9/4/26 - 0940 74.2 31.7 21 13.3 NNW | 336 19.7 NNW | 337 74.6 62.2
9/4/26 - 0930 73.8 32.1 22 13.7 NNW | 333 19.7 NNW | 335 74.0 62.2
9/4/26 - 0920 73.4 32.7 22 12.8 NNW | 333 18.8 NNW | 328 73.8 62.2
9/4/26 - 0910 72.8 32.4 23 13.9 NNW | 334 20.0 NNW | 345 73.2 62.2
9/4/26 - 0900 72.3 32.8 23 14.8 NNW | 333 23.2 NNW | 333 72.6 62.2
9/4/26 - 0850 72.0 33.5 24 13.9 NNW | 329 21.2 NNW | 332 72.5 62.2
9/4/26 - 0840 71.6 34.0 25 13.8 NNW | 328 21.2 NW | 320 72.0 62.2
9/4/26 - 0830 70.9 34.4 26 14.6 NW | 324 19.9 NW | 318 71.1 62.2
9/4/26 - 0820 70.4 34.8 27 14.7 NNW | 327 21.3 NNW | 327 70.7 62.2
9/4/26 - 0810 69.8 34.9 28 14.1 NW | 325 20.8 NW | 325 70.1 62.2
9/4/26 - 0800 69.0 34.6 28 14.9 NNW | 330 19.9 NNW | 328 69.4 62.2
9/4/26 - 0750 68.3 34.1 28 15.8 NNW | 330 21.6 NNW | 330 68.6 62.2
9/4/26 - 0740 67.7 33.4 28 16.8 NNW | 333 24.1 NNW | 334 68.0 62.2
9/4/26 - 0730 66.9 31.4 27 16.9 NNW | 334 22.9 NNW | 338 67.4 62.2
9/4/26 - 0720 65.9 26.9 23 17.4 NNW | 336 23.5 NNW | 333 66.4 62.2
9/4/26 - 0710 64.9 23.8 21 17.0 NNW | 339 24.4 NW | 326 65.3 62.2
9/4/26 - 0700 64.5 25.8 23 16.1 NNW | 342 22.1 NNW | 338 64.8 62.2
9/4/26 - 0650 64.5 26.4 23 17.2 NNW | 341 23.3 NNW | 345 64.8 62.2
9/4/26 - 0640 64.4 25.7 23 18.3 NNW | 339 25.0 NW | 320 64.8 62.2
9/4/26 - 0630 63.9 27.2 25 17.8 NNW | 335 24.5 NNW | 338 64.8 62.2
9/4/26 - 0620 63.4 29.2 27 16.7 NNW | 329 22.9 NNW | 329 64.8 62.2
9/4/26 - 0610 63.2 30.9 30 17.4 NNW | 330 25.5 NNW | 342 64.8 62.2
9/4/26 - 0600 62.8 31.4 31 18.5 NNW | 330 26.2 NNW | 327 64.8 62.2
9/4/26 - 0550 62.6 31.7 31 18.1 NNW | 328 26.2 NNW | 334 64.8 62.2
9/4/26 - 0540 62.5 32.0 32 18.7 NNW | 328 25.4 NW | 321 64.8 62.2
9/4/26 - 0530 62.3 32.7 33 18.7 NNW | 328 27.1 NW | 322 64.8 62.2
9/4/26 - 0520 62.6 33.6 34 20.1 NNW | 329 30.0 NNW | 340 64.8 62.5
9/4/26 - 0510 62.8 34.1 34 19.3 NNW | 331 28.4 NW | 320 64.8 62.7
Max 81.8 44.4 37 20.1 - 30.0 - 82.9 65.5
Avg 71.1 33.9 26 13.9 - 21.3 - - -
Min 62.3 23.8 15 3.7 - 9.3 - 64.8 62.2